createdAt,value
2023-01-29T00:02:30.628Z,15.15
2023-01-29T00:05:32.552Z,15.48
2023-01-29T00:08:35.841Z,17.92
2023-01-29T00:11:37.805Z,15.85
2023-01-29T00:14:39.732Z,16.73
2023-01-29T00:17:41.614Z,16.77
2023-01-29T00:20:44.099Z,15.57
2023-01-29T00:23:46.307Z,15.20
2023-01-29T00:26:50.132Z,15.63
2023-01-29T00:30:08.958Z,15.77
2023-01-29T00:33:12.025Z,16.52
2023-01-29T00:39:16.789Z,17.52
2023-01-29T00:42:37.121Z,17.08
2023-01-29T00:45:39.080Z,15.85
2023-01-29T00:48:41.143Z,16.03
2023-01-29T00:51:43.540Z,24.80
2023-01-29T00:54:45.457Z,19.00
2023-01-29T00:57:47.553Z,13.82
2023-01-29T01:00:49.608Z,15.90
2023-01-29T01:03:51.521Z,17.45
2023-01-29T01:06:53.435Z,14.18
2023-01-29T01:10:14.120Z,14.68
2023-01-29T01:13:16.216Z,18.58
2023-01-29T01:16:19.095Z,16.70
2023-01-29T01:19:21.088Z,18.02
2023-01-29T01:22:23.396Z,16.55
2023-01-29T01:25:26.860Z,17.30
2023-01-29T01:28:29.114Z,20.67
2023-01-29T01:31:31.129Z,14.90
2023-01-29T01:34:33.461Z,15.52
2023-01-29T01:37:37.691Z,16.92
2023-01-29T01:40:45.465Z,16.88
2023-01-29T01:44:07.985Z,15.27
2023-01-29T01:47:09.961Z,16.27
2023-01-29T01:50:30.069Z,16.85
2023-01-29T01:53:41.715Z,17.00
2023-01-29T01:56:50.289Z,17.95
2023-01-29T02:00:11.263Z,14.90
2023-01-29T02:03:36.987Z,16.15
2023-01-29T02:06:59.625Z,16.63
2023-01-29T02:10:10.124Z,15.68
2023-01-29T02:13:13.081Z,17.70
2023-01-29T02:19:27.809Z,15.65
2023-01-29T02:22:56.853Z,14.77
2023-01-29T02:26:11.167Z,17.48
2023-01-29T02:29:23.239Z,15.18
2023-01-29T02:32:41.643Z,11.07
2023-01-29T02:35:55.436Z,18.05
2023-01-29T02:39:23.509Z,16.42
2023-01-29T02:42:32.455Z,16.63
2023-01-29T02:45:52.727Z,16.45
2023-01-29T02:49:02.064Z,16.77
2023-01-29T02:52:21.589Z,14.90
2023-01-29T02:55:39.149Z,17.27
2023-01-29T02:58:47.974Z,17.05
2023-01-29T03:01:57.052Z,14.10
2023-01-29T03:05:01.881Z,15.40
2023-01-29T03:08:11.376Z,16.92
2023-01-29T03:11:15.084Z,17.90
2023-01-29T03:14:55.221Z,14.23
2023-01-29T03:18:02.495Z,18.00
2023-01-29T03:21:30.978Z,15.48
2023-01-29T03:24:51.634Z,14.88
2023-01-29T03:28:20.770Z,16.40
2023-01-29T03:31:44.083Z,15.40
2023-01-29T03:34:52.471Z,16.30
2023-01-29T03:37:56.943Z,17.98
2023-01-29T03:41:17.089Z,14.07
2023-01-29T03:44:49.103Z,16.52
2023-01-29T03:48:14.333Z,17.45
2023-01-29T03:51:27.253Z,16.65
2023-01-29T03:54:37.529Z,13.77
2023-01-29T03:57:50.250Z,15.35
2023-01-29T04:01:01.480Z,16.35
2023-01-29T04:04:15.136Z,14.32
2023-01-29T04:10:26.939Z,16.92
2023-01-29T04:13:33.799Z,18.38
2023-01-29T04:16:44.592Z,17.98
2023-01-29T04:19:49.804Z,21.13
2023-01-29T04:26:18.993Z,19.75
2023-01-29T04:29:30.392Z,21.45
2023-01-29T04:33:00.295Z,16.55
2023-01-29T04:36:14.451Z,16.05
2023-01-29T04:39:27.572Z,14.85
2023-01-29T04:42:40.537Z,21.08
2023-01-29T04:46:00.664Z,16.92
2023-01-29T04:49:18.496Z,14.98
2023-01-29T04:52:24.080Z,15.90
2023-01-29T04:55:36.153Z,13.93
2023-01-29T04:58:49.965Z,15.73
2023-01-29T05:01:53.286Z,22.48
2023-01-29T05:04:58.611Z,19.92
2023-01-29T05:08:00.515Z,13.05
2023-01-29T05:11:02.380Z,14.65
2023-01-29T05:14:08.119Z,17.98
2023-01-29T05:17:15.873Z,17.13
2023-01-29T05:20:18.353Z,14.75
2023-01-29T05:23:22.536Z,18.30
2023-01-29T05:26:42.999Z,17.65
2023-01-29T05:29:48.312Z,14.07
2023-01-29T05:32:50.257Z,15.85
2023-01-29T05:35:52.307Z,17.63
2023-01-29T05:38:54.163Z,14.90
2023-01-29T05:41:56.056Z,14.95
2023-01-29T05:44:57.960Z,14.10
2023-01-29T05:48:00.696Z,15.93
2023-01-29T05:51:04.792Z,16.70
2023-01-29T05:54:06.755Z,17.17
2023-01-29T05:57:08.687Z,19.02
2023-01-29T06:00:13.183Z,15.80
2023-01-29T06:03:15.844Z,19.52
2023-01-29T06:06:18.081Z,20.48
2023-01-29T06:09:20.082Z,16.95
2023-01-29T06:12:22.109Z,14.20
2023-01-29T06:15:26.462Z,18.17
2023-01-29T06:18:28.485Z,18.98
2023-01-29T06:21:30.321Z,21.70
2023-01-29T06:24:32.948Z,16.30
2023-01-29T06:27:34.867Z,19.30
2023-01-29T06:30:36.870Z,17.35
2023-01-29T06:33:38.816Z,19.93
2023-01-29T06:36:41.954Z,16.10
2023-01-29T06:39:44.117Z,18.30
2023-01-29T06:42:46.983Z,16.63
2023-01-29T06:45:56.799Z,16.45
2023-01-29T06:49:00.798Z,21.77
2023-01-29T06:52:02.706Z,18.70
2023-01-29T06:55:04.948Z,19.50
2023-01-29T06:58:08.625Z,17.20
2023-01-29T07:01:19.702Z,18.80
2023-01-29T07:04:31.187Z,19.45
2023-01-29T07:07:36.784Z,18.73
2023-01-29T07:10:38.703Z,20.52
2023-01-29T07:13:40.586Z,20.00
2023-01-29T07:16:42.575Z,19.60
2023-01-29T07:19:44.468Z,20.03
2023-01-29T07:22:46.381Z,23.40
2023-01-29T07:25:49.942Z,21.85
2023-01-29T07:28:51.981Z,22.25
2023-01-29T07:31:53.993Z,19.77
2023-01-29T07:34:55.906Z,18.80
2023-01-29T07:37:58.316Z,20.00
2023-01-29T07:41:01.349Z,22.23
2023-01-29T07:44:05.005Z,21.63
2023-01-29T07:47:06.955Z,21.02
2023-01-29T07:50:09.558Z,22.02
2023-01-29T07:53:15.276Z,22.02
2023-01-29T07:56:17.189Z,32.30
2023-01-29T07:59:19.072Z,78.22
2023-01-29T08:02:20.951Z,66.38
2023-01-29T08:05:22.894Z,34.65
2023-01-29T08:08:25.891Z,66.47
2023-01-29T08:14:29.634Z,43.72
2023-01-29T08:17:31.581Z,33.70
2023-01-29T08:20:33.551Z,31.77
2023-01-29T08:23:35.509Z,29.80
2023-01-29T08:26:37.409Z,28.50
2023-01-29T08:29:39.368Z,32.45
2023-01-29T08:32:41.229Z,33.35
2023-01-29T08:35:43.222Z,33.35
2023-01-29T08:38:45.232Z,37.67
2023-01-29T08:41:47.128Z,38.33
2023-01-29T08:44:48.974Z,29.27
2023-01-29T08:47:51.082Z,29.13
2023-01-29T08:50:53.123Z,47.40
2023-01-29T08:53:55.077Z,40.60
2023-01-29T08:56:56.987Z,30.92
2023-01-29T08:59:59.026Z,25.43
2023-01-29T09:03:01.135Z,33.38
2023-01-29T09:06:03.821Z,38.87
2023-01-29T09:09:05.759Z,39.17
2023-01-29T09:12:07.807Z,26.90
2023-01-29T09:15:10.178Z,32.03
2023-01-29T09:18:12.103Z,27.10
2023-01-29T09:21:13.922Z,27.38
2023-01-29T09:24:16.074Z,26.38
2023-01-29T09:27:18.048Z,28.20
2023-01-29T09:30:19.932Z,25.98
2023-01-29T09:33:21.953Z,27.45
2023-01-29T09:36:23.922Z,27.33
2023-01-29T09:39:26.994Z,25.33
2023-01-29T09:43:21.226Z,30.77
2023-01-29T09:46:30.981Z,26.48
2023-01-29T09:49:39.526Z,74.40
2023-01-29T09:52:48.130Z,35.28
2023-01-29T09:55:55.609Z,29.10
2023-01-29T09:59:01.381Z,45.53
2023-01-29T10:02:22.631Z,29.95
2023-01-29T10:05:40.896Z,26.63
2023-01-29T10:08:54.784Z,30.35
2023-01-29T10:12:22.826Z,26.20
2023-01-29T10:15:45.253Z,27.08
2023-01-29T10:19:09.079Z,25.20
2023-01-29T10:22:25.772Z,27.42
2023-01-29T10:25:28.151Z,23.20
2023-01-29T10:28:46.615Z,27.55
2023-01-29T10:31:55.550Z,24.38
2023-01-29T10:35:21.687Z,23.58
2023-01-29T10:38:44.371Z,24.58
2023-01-29T10:42:14.191Z,28.90
2023-01-29T10:45:46.473Z,27.83
2023-01-29T10:48:54.417Z,26.65
2023-01-29T10:51:56.201Z,26.33
2023-01-29T10:55:20.009Z,25.55
2023-01-29T10:58:36.715Z,58.17
2023-01-29T11:01:38.708Z,33.75
2023-01-29T11:04:40.668Z,31.60
2023-01-29T11:07:42.768Z,29.67
2023-01-29T11:11:09.808Z,31.43
2023-01-29T11:14:22.688Z,32.67
2023-01-29T11:17:26.155Z,31.58
2023-01-29T11:21:02.960Z,37.65
2023-01-29T11:24:07.367Z,40.08
2023-01-29T11:27:33.255Z,32.53
2023-01-29T11:30:39.435Z,33.30
2023-01-29T11:33:41.582Z,32.88
2023-01-29T11:36:45.069Z,32.20
2023-01-29T11:39:50.692Z,30.58
2023-01-29T11:42:53.846Z,31.48
2023-01-29T11:45:59.549Z,33.15
2023-01-29T11:49:14.382Z,28.50
2023-01-29T11:52:25.407Z,32.72
2023-01-29T11:55:49.439Z,32.95
2023-01-29T11:58:55.600Z,31.98
2023-01-29T12:02:06.762Z,31.88
2023-01-29T12:05:18.837Z,32.33
2023-01-29T12:08:23.622Z,31.60
2023-01-29T12:11:31.786Z,35.80
2023-01-29T12:14:34.423Z,33.75
2023-01-29T12:17:39.184Z,30.73
2023-01-29T12:20:56.293Z,32.25
2023-01-29T12:24:02.451Z,35.92
2023-01-29T12:27:22.639Z,37.35
2023-01-29T12:30:54.918Z,33.08
2023-01-29T12:34:15.665Z,37.00
2023-01-29T12:37:18.140Z,33.85
2023-01-29T12:40:25.384Z,37.03
2023-01-29T12:43:42.343Z,37.70
2023-01-29T12:46:50.663Z,38.70
2023-01-29T12:49:57.204Z,37.08
2023-01-29T12:53:25.368Z,34.50
2023-01-29T12:56:33.114Z,30.52
2023-01-29T13:00:01.774Z,31.65
2023-01-29T13:03:25.712Z,29.15
2023-01-29T13:06:36.682Z,27.50
2023-01-29T13:09:41.953Z,28.52
2023-01-29T13:12:57.559Z,26.25
2023-01-29T13:16:01.576Z,23.35
2023-01-29T13:19:07.537Z,23.80
2023-01-29T13:22:21.996Z,23.25
2023-01-29T13:25:24.174Z,26.98
2023-01-29T13:28:27.849Z,27.40
2023-01-29T13:31:29.859Z,26.98
2023-01-29T13:34:35.560Z,28.53
2023-01-29T13:37:46.499Z,30.77
2023-01-29T13:40:52.073Z,24.70
2023-01-29T13:43:54.113Z,27.70
2023-01-29T13:46:58.206Z,26.63
2023-01-29T13:50:21.350Z,30.00
2023-01-29T13:53:27.160Z,28.05
2023-01-29T13:56:33.513Z,28.52
2023-01-29T14:00:05.397Z,26.02
2023-01-29T14:03:11.867Z,25.60
2023-01-29T14:06:41.616Z,33.17
2023-01-29T14:09:43.459Z,29.23
2023-01-29T14:12:46.397Z,25.23
2023-01-29T14:15:57.434Z,26.20
2023-01-29T14:19:02.332Z,24.55
2023-01-29T14:22:05.664Z,25.55
2023-01-29T14:25:16.408Z,23.33
2023-01-29T14:28:25.219Z,27.00
2023-01-29T14:31:31.477Z,25.88
2023-01-29T14:34:36.956Z,23.02
2023-01-29T14:37:41.154Z,25.48
2023-01-29T14:40:46.767Z,28.40
2023-01-29T14:43:49.109Z,28.20
2023-01-29T14:46:51.118Z,24.15
2023-01-29T14:50:03.653Z,25.13
2023-01-29T14:53:14.684Z,21.48
2023-01-29T14:56:24.679Z,25.75
2023-01-29T14:59:31.569Z,24.75
2023-01-29T15:02:43.213Z,24.98
2023-01-29T15:05:46.943Z,27.88
2023-01-29T15:09:11.152Z,30.95
2023-01-29T15:12:28.655Z,26.55
2023-01-29T15:15:46.277Z,27.50
2023-01-29T15:18:51.228Z,24.45
2023-01-29T15:22:09.375Z,28.98
2023-01-29T15:25:15.652Z,28.60
2023-01-29T15:28:17.786Z,24.95
2023-01-29T15:31:20.463Z,28.08
2023-01-29T15:34:22.985Z,26.08
2023-01-29T15:37:33.303Z,23.98
2023-01-29T15:40:35.291Z,27.92
2023-01-29T15:43:44.507Z,24.42
2023-01-29T15:46:52.713Z,26.10
2023-01-29T15:49:57.331Z,28.83
2023-01-29T15:53:03.815Z,24.58
2023-01-29T15:56:10.736Z,24.77
2023-01-29T15:59:23.447Z,29.10
2023-01-29T16:02:28.286Z,23.65
2023-01-29T16:05:33.107Z,27.58
2023-01-29T16:08:35.822Z,23.80
2023-01-29T16:11:37.982Z,27.67
2023-01-29T16:14:41.585Z,29.50
2023-01-29T16:17:45.779Z,27.20
2023-01-29T16:20:53.197Z,25.55
2023-01-29T16:24:15.927Z,27.85
2023-01-29T16:27:17.849Z,27.42
2023-01-29T16:30:20.034Z,23.75
2023-01-29T16:33:21.902Z,24.13
2023-01-29T16:36:27.657Z,39.83
2023-01-29T16:39:37.898Z,39.58
2023-01-29T16:42:41.656Z,27.33
2023-01-29T16:46:01.286Z,26.58
2023-01-29T16:49:25.772Z,27.63
2023-01-29T16:52:29.576Z,30.90
2023-01-29T16:55:43.703Z,32.17
2023-01-29T16:58:53.402Z,28.25
2023-01-29T17:01:56.179Z,24.33
2023-01-29T17:05:02.647Z,23.15
2023-01-29T17:08:05.849Z,23.38
2023-01-29T17:11:08.328Z,27.20
2023-01-29T17:14:18.636Z,25.25
2023-01-29T17:17:20.543Z,26.52
2023-01-29T17:20:23.020Z,32.97
2023-01-29T17:23:25.017Z,32.40
2023-01-29T17:26:27.007Z,31.73
2023-01-29T17:29:31.771Z,29.77
2023-01-29T17:32:43.945Z,28.25
2023-01-29T17:35:47.333Z,25.88
2023-01-29T17:38:49.200Z,26.27
2023-01-29T17:41:56.171Z,39.75
2023-01-29T17:44:58.077Z,26.80
2023-01-29T17:48:00.009Z,29.45
2023-01-29T17:51:04.634Z,29.10
2023-01-29T17:54:06.543Z,24.45
2023-01-29T17:57:18.411Z,21.40
2023-01-29T18:00:23.957Z,27.60
2023-01-29T18:03:27.543Z,27.38
2023-01-29T18:06:30.083Z,31.95
2023-01-29T18:09:32.052Z,26.52
2023-01-29T18:12:33.952Z,25.48
2023-01-29T18:15:35.943Z,36.88
2023-01-29T18:18:37.837Z,35.47
2023-01-29T18:21:39.725Z,31.67
2023-01-29T18:24:41.613Z,27.92
2023-01-29T18:27:43.854Z,24.58
2023-01-29T18:30:47.539Z,14.68
2023-01-29T18:33:49.720Z,22.52
2023-01-29T18:36:51.611Z,19.92
2023-01-29T18:39:53.920Z,19.00
2023-01-29T18:42:55.899Z,17.90
2023-01-29T18:45:59.958Z,16.53
2023-01-29T18:49:01.909Z,33.05
2023-01-29T18:52:03.921Z,20.08
2023-01-29T18:55:06.402Z,17.43
2023-01-29T18:58:26.211Z,17.60
2023-01-29T19:01:32.077Z,16.25
2023-01-29T19:04:34.016Z,17.17
2023-01-29T19:07:36.114Z,17.75
2023-01-29T19:10:38.152Z,20.07
2023-01-29T19:13:40.981Z,21.27
2023-01-29T19:16:43.783Z,21.70
2023-01-29T19:19:45.836Z,62.35
2023-01-29T19:22:48.399Z,51.97
2023-01-29T19:25:50.389Z,43.88
2023-01-29T19:28:52.247Z,38.33
2023-01-29T19:31:54.197Z,47.88
2023-01-29T19:34:57.837Z,79.70
2023-01-29T19:38:00.884Z,39.13
2023-01-29T19:44:05.008Z,22.27
2023-01-29T19:47:07.014Z,20.20
2023-01-29T19:50:10.582Z,13.75
2023-01-29T19:53:12.507Z,16.77
2023-01-29T19:56:16.568Z,18.67
2023-01-29T19:59:18.882Z,16.55
2023-01-29T20:02:20.864Z,29.33
2023-01-29T20:05:26.262Z,34.95
2023-01-29T20:08:28.127Z,79.45
2023-01-29T20:11:31.146Z,22.33
2023-01-29T20:17:34.825Z,25.17
2023-01-29T20:20:39.829Z,35.45
2023-01-29T20:23:43.359Z,62.97
2023-01-29T20:26:46.866Z,48.05
2023-01-29T20:29:48.865Z,32.53
2023-01-29T20:32:50.782Z,36.05
2023-01-29T20:36:03.240Z,46.50
2023-01-29T20:39:05.223Z,29.20
2023-01-29T20:42:07.857Z,25.77
2023-01-29T20:45:10.192Z,23.27
2023-01-29T20:48:12.389Z,46.90
2023-01-29T20:51:17.767Z,54.08
2023-01-29T20:54:19.830Z,55.50
2023-01-29T20:57:21.812Z,53.40
2023-01-29T21:00:23.871Z,121.65
2023-01-29T21:03:28.465Z,72.63
2023-01-29T21:06:30.402Z,110.05
2023-01-29T21:09:32.341Z,62.33
2023-01-29T21:12:35.113Z,86.43
2023-01-29T21:15:37.088Z,141.10
2023-01-29T21:18:39.100Z,165.60
2023-01-29T21:21:40.963Z,159.47
2023-01-29T21:24:42.969Z,76.85
2023-01-29T21:27:45.550Z,68.40
2023-01-29T21:30:48.007Z,282.52
2023-01-29T21:33:50.096Z,287.15
2023-01-29T21:36:52.129Z,302.77
2023-01-29T21:39:54.042Z,207.52
2023-01-29T21:43:12.227Z,169.55
2023-01-29T21:46:15.200Z,141.63
2023-01-29T21:52:20.989Z,85.78
2023-01-29T21:55:25.556Z,70.05
2023-01-29T21:58:27.751Z,34.15
2023-01-29T22:01:37.515Z,30.38
2023-01-29T22:04:42.029Z,81.95
2023-01-29T22:07:44.502Z,73.70
2023-01-29T22:10:46.552Z,140.40
2023-01-29T22:13:48.591Z,123.60
2023-01-29T22:16:50.536Z,373.40
2023-01-29T22:19:53.617Z,254.80
2023-01-29T22:23:00.528Z,292.13
2023-01-29T22:26:03.909Z,125.93
2023-01-29T22:29:05.762Z,87.07
2023-01-29T22:32:08.330Z,128.15
2023-01-29T22:35:11.250Z,168.13
2023-01-29T22:38:13.114Z,160.95
2023-01-29T22:41:15.379Z,149.77
2023-01-29T22:44:17.304Z,57.08
2023-01-29T22:47:19.289Z,21.58
2023-01-29T22:50:22.241Z,21.73
2023-01-29T22:56:27.532Z,47.85
2023-01-29T22:59:30.208Z,61.40
2023-01-29T23:02:32.897Z,110.38
2023-01-29T23:05:34.804Z,49.03
2023-01-29T23:08:36.701Z,29.88
2023-01-29T23:11:38.652Z,24.17
2023-01-29T23:14:40.870Z,28.57
2023-01-29T23:17:42.808Z,33.33
2023-01-29T23:20:44.648Z,28.17
2023-01-29T23:23:47.339Z,24.48
2023-01-29T23:27:07.533Z,29.15
2023-01-29T23:30:09.974Z,28.92
2023-01-29T23:33:12.251Z,27.92
2023-01-29T23:36:14.541Z,25.52
2023-01-29T23:39:16.706Z,28.48
2023-01-29T23:42:18.721Z,28.60
2023-01-29T23:45:20.558Z,26.47
2023-01-29T23:48:22.864Z,28.45
2023-01-29T23:51:24.757Z,22.00
2023-01-29T23:54:26.906Z,26.00
2023-01-29T23:57:28.759Z,21.48
